Time;durP1;ratioP1;P1;durP2;ratioP2;P2;SDS_P1;SDS_P2;PMS_P1;PMS_P2;Temp;Humidity;BMP_temperature;BMP_pressure;BME280_temperature;BME280_humidity;BME280_pressure;Samples;Min_cycle;Max_cycle;Signal;HPM_P1;HPM_P2
2024/03/31 15:09:05;;;;;;;0.90;0.10;;;;;;;19.36;27.01;92948.56;5102003;27;20386;-70
2024/03/31 15:11:31;;;;;;;0.10;0.10;;;;;;;19.34;26.56;92935.72;5063717;28;20035;-69
2024/03/31 15:13:56;;;;;;;0.90;0.10;;;;;;;19.45;26.96;92928.41;5084078;28;20499;-69
2024/03/31 15:16:21;;;;;;;0.63;0.10;;;;;;;19.04;27.64;92944.03;5064796;28;20032;-46
2024/03/31 15:18:47;;;;;;;0.00;0.00;;;;;;;19.49;26.67;92950.47;5081416;28;20040;-45
2024/03/31 15:21:12;;;;;;;0.10;0.10;;;;;;;19.52;26.15;92949.91;5080160;28;20024;-46
2024/03/31 15:23:37;;;;;;;0.05;0.05;;;;;;;19.48;26.62;92951.56;5084066;28;20039;-46
2024/03/31 15:26:03;;;;;;;0.10;0.10;;;;;;;19.47;26.38;92949.22;5047613;28;20040;-44
2024/03/31 15:28:28;;;;;;;0.00;0.00;;;;;;;19.29;26.81;92958.72;5082163;28;20131;-45
2024/03/31 15:30:55;;;;;;;0.30;0.10;;;;;;;19.29;25.92;92970.03;5081243;28;20060;-43
2024/03/31 15:33:21;;;;;;;0.03;0.03;;;;;;;19.35;26.43;92960.19;5079372;28;20041;-45
2024/03/31 15:35:46;;;;;;;0.00;0.00;;;;;;;19.53;25.72;92963.88;5082070;28;20029;-46
2024/03/31 15:38:12;;;;;;;0.00;0.00;;;;;;;19.52;25.89;92949.91;5082634;28;20043;-45
2024/03/31 15:40:37;;;;;;;0.22;0.10;;;;;;;19.53;26.42;92955.97;5085474;28;20025;-44
2024/03/31 15:43:03;;;;;;;1.90;0.10;;;;;;;19.30;26.24;92942.59;5084052;28;20032;-46
2024/03/31 15:45:28;;;;;;;0.00;0.00;;;;;;;19.39;25.64;92948.00;5081337;28;20091;-44
2024/03/31 15:47:53;;;;;;;0.10;0.10;;;;;;;19.56;25.79;92936.16;5082918;28;20056;-46
2024/03/31 15:50:19;;;;;;;0.10;0.10;;;;;;;19.80;25.49;92943.94;5079864;28;20108;-47
2024/03/31 15:52:44;;;;;;;0.10;0.10;;;;;;;19.75;25.81;92944.03;5085300;28;20044;-44
2024/03/31 15:55:10;;;;;;;0.10;0.10;;;;;;;19.86;25.95;92956.00;5078832;28;20031;-44
2024/03/31 15:57:35;;;;;;;0.20;0.10;;;;;;;19.83;25.83;92954.69;5084524;28;20088;-46
2024/03/31 16:00:01;;;;;;;0.77;0.10;;;;;;;19.95;25.71;92961.38;5080695;28;20040;-45
2024/03/31 16:02:27;;;;;;;0.28;0.10;;;;;;;19.91;25.78;92954.03;5082116;28;20039;-44
2024/03/31 16:04:52;;;;;;;0.10;0.10;;;;;;;19.46;25.71;92951.06;5083761;28;20032;-44
2024/03/31 16:07:18;;;;;;;0.30;0.10;;;;;;;19.43;26.56;92956.91;5078510;28;20072;-45
2024/03/31 16:09:43;;;;;;;0.10;0.10;;;;;;;19.35;27.28;92936.47;5079962;28;20028;-45
2024/03/31 16:12:09;;;;;;;0.00;0.00;;;;;;;19.36;26.85;92947.81;5047946;28;20032;-47
2024/03/31 16:14:34;;;;;;;0.10;0.10;;;;;;;19.47;26.46;92943.94;5067357;28;20032;-49
2024/03/31 16:17:00;;;;;;;0.30;0.10;;;;;;;19.39;26.12;92947.25;5100684;28;20525;-50
2024/03/31 16:19:25;;;;;;;0.10;0.10;;;;;;;19.32;26.50;92947.59;5069954;28;20039;-45
2024/03/31 16:21:50;;;;;;;2.00;0.20;;;;;;;19.14;26.79;92952.59;5070769;28;20033;-44
2024/03/31 16:24:16;;;;;;;0.20;0.10;;;;;;;19.21;26.47;92957.53;5053994;28;20119;-46
2024/03/31 16:26:41;;;;;;;0.00;0.00;;;;;;;19.18;26.38;92958.09;5071142;28;20103;-45
2024/03/31 16:29:07;;;;;;;0.10;0.10;;;;;;;19.20;27.01;92944.63;5069082;28;20036;-51
2024/03/31 16:31:32;;;;;;;0.10;0.10;;;;;;;18.56;26.89;92955.44;5052820;28;20029;-46
2024/03/31 16:33:58;;;;;;;0.20;0.10;;;;;;;18.70;27.44;92948.44;5069347;28;20032;-44
2024/03/31 16:36:23;;;;;;;0.10;0.10;;;;;;;18.97;28.00;92941.78;5053563;28;20429;-46
2024/03/31 16:38:48;;;;;;;0.10;0.10;;;;;;;18.82;27.75;92932.25;5068617;28;20052;-46
2024/03/31 16:41:14;;;;;;;0.40;0.10;;;;;;;18.55;27.75;92922.31;5067694;28;20079;-44
2024/03/31 16:43:40;;;;;;;0.10;0.10;;;;;;;18.72;27.86;92919.97;5065564;28;20563;-44
2024/03/31 16:46:06;;;;;;;0.10;0.10;;;;;;;18.58;28.58;92913.06;5051409;28;20041;-44
2024/03/31 16:48:31;;;;;;;0.20;0.20;;;;;;;18.67;28.40;92904.22;5065333;28;20029;-47
2024/03/31 16:50:57;;;;;;;0.10;0.10;;;;;;;18.32;29.24;92889.69;5067137;28;20113;-44
2024/03/31 16:53:22;;;;;;;0.08;0.08;;;;;;;18.22;29.58;92895.88;5057319;28;20079;-44
2024/03/31 16:55:48;;;;;;;0.03;0.03;;;;;;;18.09;30.05;92899.19;5071329;28;20059;-44
2024/03/31 16:58:13;;;;;;;0.15;0.15;;;;;;;18.24;29.82;92883.22;5101672;28;20036;-47
2024/03/31 17:00:39;;;;;;;0.10;0.10;;;;;;;18.24;30.08;92871.88;5066496;28;20044;-45
2024/03/31 17:03:05;;;;;;;0.10;0.10;;;;;;;18.27;30.43;92866.06;5067884;28;20047;-44
2024/03/31 17:05:34;;;;;;;0.30;0.20;;;;;;;17.94;30.86;92869.34;5071433;28;20067;-45
2024/03/31 17:08:00;;;;;;;;;;;;;;;17.97;31.34;92871.44;5062794;28;20099;-44
2024/03/31 17:10:26;;;;;;;3.63;0.85;;;;;;;18.16;30.66;92891.72;5068762;28;19971;-46
2024/03/31 17:12:51;;;;;;;0.10;0.10;;;;;;;18.12;30.52;92894.13;5052134;28;20028;-45
2024/03/31 17:15:17;;;;;;;1.20;0.20;;;;;;;18.05;30.88;92890.28;5068124;28;20489;-47
2024/03/31 17:17:44;;;;;;;0.08;0.08;;;;;;;18.06;30.28;92894.47;5069369;28;20047;-46
2024/03/31 17:20:09;;;;;;;0.32;0.10;;;;;;;18.12;30.38;92909.91;5066351;28;20041;-45
2024/03/31 17:22:34;;;;;;;0.17;0.10;;;;;;;17.91;31.04;92905.94;5051505;28;20350;-50
2024/03/31 17:25:00;;;;;;;0.38;0.10;;;;;;;17.97;30.85;92900.38;5066183;28;20032;-47
2024/03/31 17:27:25;;;;;;;0.05;0.05;;;;;;;18.02;29.51;92878.47;5050845;28;20038;-45
2024/03/31 17:29:51;;;;;;;0.00;0.00;;;;;;;18.23;29.21;92881.63;5065414;28;20057;-46
2024/03/31 17:32:16;;;;;;;0.10;0.10;;;;;;;18.11;29.82;92876.00;5081457;28;20029;-47
2024/03/31 17:34:42;;;;;;;0.20;0.10;;;;;;;17.86;30.28;92880.50;5068818;28;20093;-47
2024/03/31 17:37:08;;;;;;;0.50;0.20;;;;;;;17.61;30.68;92880.72;5067909;28;20477;-49
2024/03/31 17:39:34;;;;;;;0.10;0.10;;;;;;;17.73;31.21;92889.03;5068240;28;20036;-48
2024/03/31 17:42:00;;;;;;;0.10;0.00;;;;;;;17.76;31.72;92904.22;5067022;28;20093;-44
2024/03/31 17:44:26;;;;;;;0.08;0.00;;;;;;;17.62;30.99;92882.31;5068205;28;20135;-45
2024/03/31 17:46:51;;;;;;;0.00;0.00;;;;;;;17.39;31.99;92895.13;5067607;28;20553;-45
2024/03/31 17:49:17;;;;;;;0.32;0.22;;;;;;;17.18;32.62;92899.75;5051397;28;20041;-44
2024/03/31 17:51:42;;;;;;;0.10;0.10;;;;;;;16.84;33.83;92905.00;5067801;28;20067;-50
2024/03/31 17:54:07;;;;;;;1.75;0.20;;;;;;;16.75;33.76;92921.31;5068434;28;20037;-48
2024/03/31 17:56:33;;;;;;;0.05;0.05;;;;;;;16.69;33.78;92919.75;5064802;28;20104;-50
2024/03/31 17:59:00;;;;;;;0.10;0.10;;;;;;;16.50;34.84;92958.16;5068849;28;20043;-45
2024/03/31 18:01:25;;;;;;;0.20;0.10;;;;;;;16.67;34.24;92955.22;5067220;28;20054;-45
2024/03/31 18:03:52;;;;;;;0.28;0.08;;;;;;;16.67;34.00;92950.72;5069259;28;20049;-47
2024/03/31 18:06:18;;;;;;;0.20;0.10;;;;;;;16.94;33.73;92946.94;5069888;28;20107;-46
2024/03/31 18:08:44;;;;;;;0.00;0.00;;;;;;;16.83;33.48;92943.59;5066034;28;20122;-46
2024/03/31 18:11:10;;;;;;;0.63;0.05;;;;;;;16.84;33.46;92944.38;5068956;28;20024;-45
2024/03/31 18:13:37;;;;;;;0.40;0.00;;;;;;;16.78;32.89;92936.50;5066505;28;20036;-48
2024/03/31 18:16:03;;;;;;;0.95;0.10;;;;;;;17.04;32.82;92941.63;5069937;28;20097;-49
2024/03/31 18:18:33;;;;;;;0.13;0.10;;;;;;;17.12;31.88;92938.41;5063692;28;20056;-46
2024/03/31 18:21:12;;;;;;;0.10;0.10;;;;;;;17.21;31.78;92930.75;5069048;28;20098;-48
2024/03/31 18:23:42;;;;;;;0.10;0.10;;;;;;;17.19;31.37;92931.00;5066093;28;20527;-48
2024/03/31 18:26:08;;;;;;;;;;;;;;;17.39;31.20;92934.53;5067761;28;20020;-49
2024/03/31 18:28:34;;;;;;;0.10;0.10;;;;;;;17.50;30.67;92936.03;5064354;28;19924;-48
2024/03/31 18:31:01;;;;;;;0.22;0.20;;;;;;;17.66;30.52;92935.88;5067479;28;20033;-47
2024/03/31 18:33:31;;;;;;;0.57;0.10;;;;;;;17.60;30.05;92943.03;5067073;28;20377;-44
2024/03/31 18:35:58;;;;;;;0.10;0.10;;;;;;;17.42;30.53;92943.69;5067456;28;20048;-49
2024/03/31 18:38:26;;;;;;;0.10;0.10;;;;;;;17.59;30.50;92959.84;5049872;28;20044;-44
2024/03/31 18:40:58;;;;;;;0.15;0.10;;;;;;;17.62;30.78;92963.78;5066497;28;20362;-50
2024/03/31 18:43:27;;;;;;;0.10;0.10;;;;;;;17.63;30.21;92960.88;5061947;28;20071;-47
2024/03/31 18:45:56;;;;;;;0.10;0.10;;;;;;;17.78;30.42;92952.84;5067127;28;20028;-45
2024/03/31 18:48:22;;;;;;;0.20;0.10;;;;;;;17.71;29.66;92941.88;5067410;28;20041;-51
2024/03/31 18:50:47;;;;;;;0.10;0.10;;;;;;;17.80;29.72;92936.81;5067031;28;20040;-46
2024/03/31 18:53:13;;;;;;;0.35;0.20;;;;;;;17.64;29.54;92951.16;5068501;28;20090;-46
2024/03/31 18:55:39;;;;;;;0.25;0.10;;;;;;;17.66;29.21;92943.75;5067627;28;20060;-45
2024/03/31 18:58:05;;;;;;;0.55;0.10;;;;;;;17.75;29.38;92931.59;5063725;28;20128;-48
2024/03/31 19:00:32;;;;;;;0.10;0.10;;;;;;;17.88;28.90;92932.81;5065779;28;20040;-51
2024/03/31 19:02:57;;;;;;;0.10;0.10;;;;;;;17.94;28.46;92935.09;5067505;28;20028;-51
2024/03/31 19:05:24;;;;;;;0.10;0.10;;;;;;;17.96;29.04;92925.09;5067954;28;20423;-49
2024/03/31 19:07:50;;;;;;;0.43;0.20;;;;;;;18.23;28.05;92933.50;5066157;28;20064;-46
2024/03/31 19:10:16;;;;;;;0.28;0.20;;;;;;;18.23;27.75;92936.91;5066491;28;20032;-47
2024/03/31 19:12:42;;;;;;;0.38;0.20;;;;;;;18.07;27.79;92933.66;5066667;28;20051;-49
2024/03/31 19:15:08;;;;;;;0.32;0.20;;;;;;;18.20;27.67;92924.31;5065069;28;20036;-48
2024/03/31 19:17:36;;;;;;;0.10;0.10;;;;;;;18.20;27.74;92926.94;5066695;28;20083;-45
2024/03/31 19:20:04;;;;;;;0.40;0.20;;;;;;;18.32;27.01;92916.03;5067046;28;20033;-45
2024/03/31 19:22:30;;;;;;;0.20;0.20;;;;;;;18.55;27.50;92922.31;5066609;28;20043;-50
2024/03/31 19:24:56;;;;;;;0.98;0.10;;;;;;;18.42;27.63;92941.44;5067355;28;20058;-48
2024/03/31 19:27:28;;;;;;;0.60;0.30;;;;;;;18.52;27.40;92925.50;5066665;28;20400;-44
2024/03/31 19:29:55;;;;;;;0.20;0.10;;;;;;;18.55;27.56;92940.75;5066377;28;20044;-47
2024/03/31 19:32:21;;;;;;;0.68;0.20;;;;;;;18.69;27.47;92957.38;5067331;28;20078;-48
2024/03/31 19:34:50;;;;;;;0.10;0.10;;;;;;;18.65;26.85;92951.13;5062449;28;20024;-47
2024/03/31 19:37:16;;;;;;;1.08;0.20;;;;;;;18.53;27.40;92958.66;5066262;28;20039;-47
2024/03/31 19:39:41;;;;;;;0.82;0.25;;;;;;;18.49;26.73;92965.56;5063711;28;20037;-45
2024/03/31 19:42:07;;;;;;;0.25;0.22;;;;;;;18.45;26.58;92961.91;5062888;28;20047;-44
2024/03/31 19:44:33;;;;;;;0.40;0.20;;;;;;;18.57;26.57;92964.94;5066299;28;20180;-44
2024/03/31 19:46:58;;;;;;;0.57;0.20;;;;;;;18.49;26.25;92961.06;5064776;28;20043;-51
2024/03/31 19:49:23;;;;;;;0.68;0.20;;;;;;;18.54;26.56;92939.97;5062631;28;20036;-45
2024/03/31 19:51:49;;;;;;;0.38;0.20;;;;;;;18.46;26.63;92934.53;5048553;28;20521;-45
2024/03/31 20:01:02;;;;;;;0.82;0.15;;;;;;;18.54;25.94;92934.69;5048027;28;20083;-49
2024/03/31 20:03:27;;;;;;;1.35;0.38;;;;;;;18.69;25.98;92946.84;5053961;28;20048;-46
2024/03/31 20:05:57;;;;;;;1.65;0.30;;;;;;;18.77;25.63;92950.69;5043333;28;20044;-48
2024/03/31 20:08:27;;;;;;;0.50;0.40;;;;;;;18.82;25.84;92932.25;5058801;28;20063;-46
2024/03/31 20:10:57;;;;;;;0.57;0.30;;;;;;;18.61;26.00;92925.66;5068857;28;20048;-47
2024/03/31 20:13:23;;;;;;;0.28;0.20;;;;;;;18.60;26.02;92930.16;5084564;28;20039;-45
2024/03/31 20:15:48;;;;;;;1.00;0.20;;;;;;;18.66;26.22;92930.88;5067472;28;20036;-44
2024/03/31 20:18:13;;;;;;;0.30;0.20;;;;;;;18.84;25.12;92913.53;5065426;28;20341;-45
2024/03/31 20:20:46;;;;;;;0.70;0.20;;;;;;;18.68;25.99;92918.19;5066321;28;20036;-44
2024/03/31 20:23:12;;;;;;;0.40;0.20;;;;;;;18.70;25.53;92914.22;5069553;28;20028;-44
2024/03/31 20:25:37;;;;;;;0.32;0.10;;;;;;;18.81;25.78;92917.53;5052850;28;20032;-44
2024/03/31 20:28:02;;;;;;;0.20;0.20;;;;;;;18.84;25.41;92924.84;5068320;28;20403;-45
2024/03/31 20:30:28;;;;;;;0.32;0.10;;;;;;;19.03;25.30;92919.56;5069818;28;20033;-47
2024/03/31 20:32:53;;;;;;;0.32;0.20;;;;;;;19.03;24.90;92897.72;5069545;28;20032;-45
2024/03/31 20:35:19;;;;;;;1.13;0.20;;;;;;;19.07;25.34;92890.78;5061382;28;20059;-45
2024/03/31 20:37:44;;;;;;;0.30;0.20;;;;;;;18.68;26.07;92908.44;5067949;28;20044;-45
2024/03/31 20:40:11;;;;;;;0.10;0.10;;;;;;;18.66;26.28;92905.31;5067479;28;20036;-45
2024/03/31 20:42:36;;;;;;;0.10;0.10;;;;;;;18.84;25.35;92903.75;5050555;28;20047;-45
2024/03/31 20:45:03;;;;;;;0.40;0.15;;;;;;;18.74;25.35;92901.25;5035298;28;20083;-44
2024/03/31 20:47:28;;;;;;;0.20;0.10;;;;;;;18.49;26.20;92894.50;5051397;28;20033;-45
2024/03/31 20:49:53;;;;;;;0.40;0.10;;;;;;;18.62;26.34;92892.97;5069575;28;20024;-45
2024/03/31 20:52:19;;;;;;;0.50;0.10;;;;;;;18.82;25.50;92879.56;5049372;28;20033;-44
2024/03/31 20:54:44;;;;;;;0.77;0.10;;;;;;;18.94;25.53;92895.72;5062261;28;20040;-45
2024/03/31 20:57:10;;;;;;;0.20;0.20;;;;;;;18.76;26.19;92894.63;5069047;28;20040;-45
2024/03/31 20:59:35;;;;;;;0.10;0.10;;;;;;;18.91;25.86;92890.25;5066718;28;20370;-44
2024/03/31 21:02:01;;;;;;;0.25;0.20;;;;;;;19.07;25.78;92885.53;5069914;28;20031;-46
2024/03/31 21:04:26;;;;;;;0.10;0.10;;;;;;;19.18;25.25;92888.78;5065603;28;20479;-46
2024/03/31 21:06:51;;;;;;;0.63;0.20;;;;;;;18.89;25.57;92879.22;5068523;28;20151;-45
2024/03/31 21:09:17;;;;;;;0.85;0.20;;;;;;;18.91;26.07;92869.97;5053595;28;20024;-49
2024/03/31 21:11:42;;;;;;;1.08;0.10;;;;;;;18.82;26.41;92868.25;5068029;28;20472;-47
2024/03/31 21:14:07;;;;;;;0.75;0.15;;;;;;;18.78;26.74;92877.78;5048947;28;20033;-49
2024/03/31 21:16:33;;;;;;;1.17;0.30;;;;;;;18.74;27.76;92880.19;5069757;28;20028;-49
2024/03/31 21:18:58;;;;;;;0.25;0.10;;;;;;;18.71;27.67;92884.16;5068677;28;20453;-49
2024/03/31 21:21:27;;;;;;;0.22;0.15;;;;;;;18.53;28.16;92887.59;5067377;28;20120;-48
2024/03/31 21:23:53;;;;;;;0.20;0.20;;;;;;;18.75;27.61;92873.84;5068524;28;20043;-45
2024/03/31 21:26:19;;;;;;;0.50;0.30;;;;;;;18.84;26.74;92852.94;5051915;28;20040;-48
2024/03/31 21:28:48;;;;;;;0.80;0.20;;;;;;;18.69;26.66;92833.63;5069263;28;20043;-48
2024/03/31 21:31:15;;;;;;;0.50;0.10;;;;;;;18.50;27.07;92841.53;5068386;28;20037;-47
2024/03/31 21:33:42;;;;;;;0.30;0.20;;;;;;;18.55;27.79;92845.97;5067336;28;20119;-44
2024/03/31 21:36:21;;;;;;;1.17;0.20;;;;;;;18.55;27.68;92827.53;5065972;28;20044;-45
2024/03/31 21:38:49;;;;;;;0.28;0.10;;;;;;;18.80;27.58;92834.31;5069680;28;20081;-45
2024/03/31 21:41:16;;;;;;;0.55;0.22;;;;;;;18.52;28.32;92834.16;5065269;28;20024;-46
2024/03/31 21:43:42;;;;;;;0.38;0.20;;;;;;;18.25;28.29;92839.25;5069357;28;20020;-48
2024/03/31 21:46:08;;;;;;;0.10;0.10;;;;;;;18.17;28.36;92814.38;5065206;28;20036;-47
2024/03/31 21:48:34;;;;;;;0.95;0.20;;;;;;;18.12;28.87;92809.16;5066878;28;20028;-51
2024/03/31 21:51:01;;;;;;;0.52;0.10;;;;;;;18.44;28.00;92790.03;5068120;28;20029;-47
2024/03/31 21:53:27;;;;;;;0.20;0.20;;;;;;;18.27;28.51;92803.69;5062839;28;20033;-45
2024/03/31 21:55:58;;;;;;;0.35;0.10;;;;;;;18.35;28.39;92812.81;5068216;28;20040;-47
2024/03/31 21:58:28;;;;;;;0.95;0.10;;;;;;;17.98;29.33;92809.88;5067833;28;20064;-48
2024/03/31 22:01:23;;;;;;;;;;;;;;;17.91;29.58;92812.06;5067819;28;20067;-45
2024/03/31 22:03:49;;;;;;;0.28;0.20;;;;;;;18.00;29.35;92808.81;5059750;28;19919;-47
2024/03/31 22:06:20;;;;;;;0.15;0.15;;;;;;;18.13;28.97;92793.09;5049523;28;20037;-45
2024/03/31 22:08:46;;;;;;;0.10;0.10;;;;;;;17.91;29.93;92796.28;5063191;28;20041;-46
2024/03/31 22:11:13;;;;;;;0.80;0.20;;;;;;;17.80;30.18;92779.06;5067994;28;20025;-45
2024/03/31 22:13:39;;;;;;;0.20;0.15;;;;;;;17.79;30.27;92772.22;5065599;28;20039;-46
2024/03/31 22:16:05;;;;;;;0.65;0.20;;;;;;;17.73;30.34;92758.34;5067391;28;20025;-48
2024/03/31 22:18:31;;;;;;;0.10;0.10;;;;;;;17.53;30.18;92758.59;5061003;28;20039;-48
2024/03/31 22:21:04;;;;;;;0.90;0.20;;;;;;;17.46;28.69;92766.81;5064461;28;20020;-46
2024/03/31 22:23:30;;;;;;;0.75;0.28;;;;;;;17.33;29.39;92749.88;5068833;28;20044;-48
2024/03/31 22:25:56;;;;;;;0.68;0.10;;;;;;;17.64;29.66;92751.38;5050166;28;20036;-47
2024/03/31 22:28:22;;;;;;;0.20;0.10;;;;;;;17.66;29.02;92742.13;5068353;28;20190;-47
2024/03/31 22:30:48;;;;;;;0.10;0.10;;;;;;;17.74;29.11;92748.59;5048638;28;20033;-50
2024/03/31 22:33:13;;;;;;;2.13;0.10;;;;;;;17.74;29.17;92732.84;5082728;28;20024;-47
2024/03/31 22:35:39;;;;;;;0.10;0.10;;;;;;;17.53;28.60;92727.06;5050557;28;20755;-48
2024/03/31 22:38:05;;;;;;;0.30;0.10;;;;;;;17.78;28.58;92744.34;5067246;28;20039;-50
2024/03/31 22:40:31;;;;;;;0.03;0.03;;;;;;;17.56;28.52;92702.84;5049084;28;20382;-50
2024/03/31 22:42:56;;;;;;;0.10;0.10;;;;;;;17.58;28.53;92677.06;5066312;28;20039;-49
2024/03/31 22:45:22;;;;;;;0.00;0.00;;;;;;;17.51;28.88;92681.88;5064215;28;20033;-49
2024/03/31 22:47:47;;;;;;;0.10;0.10;;;;;;;17.75;28.47;92681.84;5050867;28;20044;-50
2024/03/31 22:50:13;;;;;;;0.10;0.10;;;;;;;17.81;28.43;92675.44;5066163;28;20024;-48
2024/03/31 22:52:38;;;;;;;0.00;0.00;;;;;;;17.85;28.73;92665.94;5063853;28;20061;-48
2024/03/31 22:55:04;;;;;;;0.73;0.10;;;;;;;18.06;28.82;92653.25;5067423;28;20089;-50
2024/03/31 22:57:30;;;;;;;0.10;0.10;;;;;;;18.08;28.67;92664.28;5041733;28;20032;-49
2024/03/31 22:59:56;;;;;;;0.00;0.00;;;;;;;18.06;28.36;92655.13;5066095;28;20045;-48
2024/03/31 23:02:21;;;;;;;0.28;0.10;;;;;;;18.27;28.63;92660.84;5068084;28;20032;-51
2024/03/31 23:04:47;;;;;;;1.02;0.10;;;;;;;18.10;29.05;92649.00;5068005;28;20029;-48
2024/03/31 23:07:12;;;;;;;0.10;0.00;;;;;;;18.19;29.41;92664.91;5067712;28;20061;-50
2024/03/31 23:09:38;;;;;;;0.20;0.08;;;;;;;18.09;29.59;92668.47;5085339;28;20027;-49
2024/03/31 23:12:03;;;;;;;0.30;0.10;;;;;;;18.07;29.84;92669.84;5066662;28;20469;-51
2024/03/31 23:14:29;;;;;;;0.00;0.00;;;;;;;18.14;29.16;92663.16;5059782;28;20044;-50
2024/03/31 23:16:54;;;;;;;0.00;0.00;;;;;;;18.14;28.73;92654.47;5050580;28;20021;-46
2024/03/31 23:19:20;;;;;;;0.10;0.00;;;;;;;18.20;30.95;92666.50;5048684;28;20481;-45
2024/03/31 23:21:45;;;;;;;0.45;0.10;;;;;;;18.04;32.25;92694.09;5064470;28;20537;-47
2024/03/31 23:24:11;;;;;;;0.15;0.10;;;;;;;17.85;32.18;92700.13;5056451;28;20032;-47
2024/03/31 23:26:36;;;;;;;0.00;0.00;;;;;;;17.78;31.51;92692.56;5049096;28;20110;-46
2024/03/31 23:29:03;;;;;;;1.75;0.10;;;;;;;17.66;31.92;92679.03;5063903;28;20028;-44
2024/03/31 23:31:29;;;;;;;0.63;0.10;;;;;;;17.61;31.00;92683.59;5066460;28;20094;-45
2024/03/31 23:33:54;;;;;;;0.10;0.10;;;;;;;17.39;31.58;92664.66;5073259;28;20036;-47
2024/03/31 23:36:20;;;;;;;0.10;0.10;;;;;;;17.57;30.91;92670.22;5072186;28;20052;-47
2024/03/31 23:38:48;;;;;;;0.00;0.00;;;;;;;17.58;30.76;92654.19;5073919;28;20034;-46
2024/03/31 23:41:14;;;;;;;0.00;0.00;;;;;;;17.63;31.58;92632.31;5067532;28;20035;-50
2024/03/31 23:43:39;;;;;;;0.20;0.10;;;;;;;17.56;31.30;92627.41;5055221;28;20033;-45
2024/03/31 23:46:05;;;;;;;0.32;0.10;;;;;;;17.48;31.54;92625.41;5071704;28;20104;-44
2024/03/31 23:48:30;;;;;;;0.22;0.10;;;;;;;17.46;31.86;92616.25;5072146;28;20028;-47
2024/03/31 23:50:56;;;;;;;0.10;0.10;;;;;;;17.32;32.53;92610.91;5070528;28;20032;-48
2024/03/31 23:53:22;;;;;;;0.30;0.13;;;;;;;17.23;32.77;92604.72;5071881;28;20106;-46
2024/03/31 23:55:47;;;;;;;0.00;0.00;;;;;;;17.31;32.42;92612.75;5059606;28;20453;-48
2024/03/31 23:58:13;;;;;;;0.35;0.10;;;;;;;17.45;31.82;92594.44;5070971;28;20043;-47
